sensor_id;sensor_type;location;lat;lon;timestamp;pressure;altitude;pressure_sealevel;temperature;humidity
65666;BME280;52365;47.464;18.976;2023-03-03T00:00:06;99999.31;;;5.68;62.88
65666;BME280;52365;47.464;18.976;2023-03-03T00:00:43;99998.56;;;5.68;62.86
65666;BME280;52365;47.464;18.976;2023-03-03T00:01:19;100000.56;;;5.64;62.97
65666;BME280;52365;47.464;18.976;2023-03-03T00:01:55;100010.06;;;5.65;63.04
65666;BME280;52365;47.464;18.976;2023-03-03T00:02:31;100002.47;;;5.63;63.04
65666;BME280;52365;47.464;18.976;2023-03-03T00:03:09;100005.84;;;5.67;63.00
65666;BME280;52365;47.464;18.976;2023-03-03T00:03:46;100001.25;;;5.68;62.94
65666;BME280;52365;47.464;18.976;2023-03-03T00:04:22;100004.25;;;5.70;62.92
65666;BME280;52365;47.464;18.976;2023-03-03T00:04:58;99998.63;;;5.64;62.97
65666;BME280;52365;47.464;18.976;2023-03-03T00:05:35;100000.06;;;5.69;62.89
65666;BME280;52365;47.464;18.976;2023-03-03T00:06:13;99998.56;;;5.68;62.83
65666;BME280;52365;47.464;18.976;2023-03-03T00:06:49;99994.78;;;5.65;62.84
65666;BME280;52365;47.464;18.976;2023-03-03T00:07:25;100000.56;;;5.64;62.99
65666;BME280;52365;47.464;18.976;2023-03-03T00:08:02;100001.72;;;5.63;63.11
65666;BME280;52365;47.464;18.976;2023-03-03T00:08:39;100000.88;;;5.66;63.09
65666;BME280;52365;47.464;18.976;2023-03-03T00:09:16;100002.00;;;5.68;62.89
65666;BME280;52365;47.464;18.976;2023-03-03T00:09:52;99999.75;;;5.67;62.95
65666;BME280;52365;47.464;18.976;2023-03-03T00:10:28;100002.41;;;5.67;62.91
65666;BME280;52365;47.464;18.976;2023-03-03T00:11:04;100000.19;;;5.62;63.01
65666;BME280;52365;47.464;18.976;2023-03-03T00:11:42;99999.44;;;5.61;63.14
65666;BME280;52365;47.464;18.976;2023-03-03T00:12:47;99998.75;;;5.57;63.21
65666;BME280;52365;47.464;18.976;2023-03-03T00:13:25;99998.00;;;5.56;63.18
65666;BME280;52365;47.464;18.976;2023-03-03T00:14:01;99998.19;;;5.49;63.30
65666;BME280;52365;47.464;18.976;2023-03-03T00:14:37;99993.59;;;5.50;63.41
65666;BME280;52365;47.464;18.976;2023-03-03T00:15:17;99988.22;;;5.50;63.44
65666;BME280;52365;47.464;18.976;2023-03-03T00:16:09;99989.81;;;5.47;63.49
65666;BME280;52365;47.464;18.976;2023-03-03T00:16:47;99990.62;;;5.44;63.51
65666;BME280;52365;47.464;18.976;2023-03-03T00:17:29;99985.22;;;5.48;63.48
65666;BME280;52365;47.464;18.976;2023-03-03T00:18:34;99989.41;;;5.49;63.43
65666;BME280;52365;47.464;18.976;2023-03-03T00:19:17;99989.72;;;5.51;63.25
65666;BME280;52365;47.464;18.976;2023-03-03T00:19:54;99992.22;;;5.42;63.49
65666;BME280;52365;47.464;18.976;2023-03-03T00:20:35;99993.37;;;5.41;63.63
65666;BME280;52365;47.464;18.976;2023-03-03T00:21:44;99988.38;;;5.43;63.45
65666;BME280;52365;47.464;18.976;2023-03-03T00:22:30;99989.28;;;5.36;63.58
65666;BME280;52365;47.464;18.976;2023-03-03T00:24:45;99988.59;;;5.32;63.82
65666;BME280;52365;47.464;18.976;2023-03-03T00:25:30;99990.03;;;5.37;63.82
65666;BME280;52365;47.464;18.976;2023-03-03T00:26:22;99988.16;;;5.34;64.06
65666;BME280;52365;47.464;18.976;2023-03-03T00:27:16;99983.94;;;5.36;64.07
65666;BME280;52365;47.464;18.976;2023-03-03T00:28:00;99986.25;;;5.34;64.08
65666;BME280;52365;47.464;18.976;2023-03-03T00:28:46;99983.94;;;5.36;63.97
65666;BME280;52365;47.464;18.976;2023-03-03T00:29:39;99980.56;;;5.32;64.09
65666;BME280;52365;47.464;18.976;2023-03-03T00:30:19;99981.81;;;5.27;64.27
65666;BME280;52365;47.464;18.976;2023-03-03T00:31:00;99976.78;;;5.29;64.29
65666;BME280;52365;47.464;18.976;2023-03-03T00:31:36;99976.03;;;5.29;64.27
65666;BME280;52365;47.464;18.976;2023-03-03T00:32:53;99977.16;;;5.32;64.26
65666;BME280;52365;47.464;18.976;2023-03-03T00:33:33;99978.84;;;5.22;64.37
65666;BME280;52365;47.464;18.976;2023-03-03T00:34:26;99976.59;;;5.20;64.46
65666;BME280;52365;47.464;18.976;2023-03-03T00:35:23;99982.69;;;5.21;64.37
65666;BME280;52365;47.464;18.976;2023-03-03T00:36:53;99981.25;;;5.16;64.47
65666;BME280;52365;47.464;18.976;2023-03-03T00:37:33;99977.41;;;5.17;64.46
65666;BME280;52365;47.464;18.976;2023-03-03T00:38:13;99978.94;;;5.18;64.30
65666;BME280;52365;47.464;18.976;2023-03-03T00:38:52;99980.44;;;5.19;64.27
65666;BME280;52365;47.464;18.976;2023-03-03T00:39:29;99977.69;;;5.23;64.11
65666;BME280;52365;47.464;18.976;2023-03-03T00:40:19;99986.53;;;5.20;63.98
65666;BME280;52365;47.464;18.976;2023-03-03T00:40:58;99987.00;;;5.15;64.25
65666;BME280;52365;47.464;18.976;2023-03-03T00:41:35;99985.78;;;5.19;64.32
65666;BME280;52365;47.464;18.976;2023-03-03T00:42:13;99984.13;;;5.25;64.06
65666;BME280;52365;47.464;18.976;2023-03-03T00:42:55;99986.78;;;5.25;63.94
65666;BME280;52365;47.464;18.976;2023-03-03T00:43:34;99980.28;;;5.26;63.79
65666;BME280;52365;47.464;18.976;2023-03-03T00:44:43;99978.78;;;5.25;63.77
65666;BME280;52365;47.464;18.976;2023-03-03T00:45:59;99977.06;;;5.15;63.96
65666;BME280;52365;47.464;18.976;2023-03-03T00:46:35;99982.41;;;5.15;63.90
65666;BME280;52365;47.464;18.976;2023-03-03T00:47:27;99981.72;;;5.11;64.05
65666;BME280;52365;47.464;18.976;2023-03-03T00:48:53;99980.16;;;5.14;64.19
65666;BME280;52365;47.464;18.976;2023-03-03T00:49:29;99976.47;;;5.27;63.89
65666;BME280;52365;47.464;18.976;2023-03-03T00:50:42;99980.97;;;5.30;63.59
65666;BME280;52365;47.464;18.976;2023-03-03T00:51:57;99972.97;;;5.11;64.08
65666;BME280;52365;47.464;18.976;2023-03-03T00:52:39;99983.66;;;5.11;64.17
65666;BME280;52365;47.464;18.976;2023-03-03T00:53:17;99977.50;;;5.14;64.28
65666;BME280;52365;47.464;18.976;2023-03-03T00:53:54;99973.59;;;5.18;64.27
65666;BME280;52365;47.464;18.976;2023-03-03T00:54:30;99980.06;;;5.17;64.25
65666;BME280;52365;47.464;18.976;2023-03-03T00:55:07;99978.25;;;5.14;64.26
65666;BME280;52365;47.464;18.976;2023-03-03T00:55:44;99978.69;;;5.09;64.39
65666;BME280;52365;47.464;18.976;2023-03-03T00:56:22;99970.69;;;5.09;64.50
65666;BME280;52365;47.464;18.976;2023-03-03T00:56:58;99974.88;;;5.10;64.55
65666;BME280;52365;47.464;18.976;2023-03-03T00:57:34;99980.22;;;5.10;64.50
65666;BME280;52365;47.464;18.976;2023-03-03T00:58:10;99973.00;;;5.07;64.49
65666;BME280;52365;47.464;18.976;2023-03-03T00:58:46;99972.91;;;5.14;64.50
65666;BME280;52365;47.464;18.976;2023-03-03T00:59:23;99965.63;;;5.15;64.37
65666;BME280;52365;47.464;18.976;2023-03-03T00:59:59;99973.72;;;5.11;64.40
65666;BME280;52365;47.464;18.976;2023-03-03T01:00:36;99974.53;;;5.08;64.45
65666;BME280;52365;47.464;18.976;2023-03-03T01:01:13;99965.28;;;5.13;64.49
65666;BME280;52365;47.464;18.976;2023-03-03T01:01:49;99970.22;;;5.14;64.49
65666;BME280;52365;47.464;18.976;2023-03-03T01:02:25;99967.56;;;5.14;64.43
65666;BME280;52365;47.464;18.976;2023-03-03T01:03:05;99962.97;;;5.15;64.39
65666;BME280;52365;47.464;18.976;2023-03-03T01:03:41;99970.63;;;5.13;64.43
65666;BME280;52365;47.464;18.976;2023-03-03T01:04:17;99967.94;;;5.13;64.33
65666;BME280;52365;47.464;18.976;2023-03-03T01:04:53;99961.84;;;5.12;64.39
65666;BME280;52365;47.464;18.976;2023-03-03T01:05:33;99966.03;;;5.13;64.40
65666;BME280;52365;47.464;18.976;2023-03-03T01:06:10;99970.22;;;5.14;64.34
65666;BME280;52365;47.464;18.976;2023-03-03T01:06:47;99966.38;;;5.15;64.30
65666;BME280;52365;47.464;18.976;2023-03-03T01:07:24;99972.91;;;5.14;64.30
65666;BME280;52365;47.464;18.976;2023-03-03T01:08:01;99966.88;;;5.10;64.31
65666;BME280;52365;47.464;18.976;2023-03-03T01:08:38;99966.94;;;5.07;64.44
65666;BME280;52365;47.464;18.976;2023-03-03T01:09:14;99967.72;;;5.03;64.48
65666;BME280;52365;47.464;18.976;2023-03-03T01:09:50;99962.34;;;5.07;64.56
65666;BME280;52365;47.464;18.976;2023-03-03T01:10:27;99963.78;;;5.12;64.55
65666;BME280;52365;47.464;18.976;2023-03-03T01:11:20;99966.81;;;5.14;64.41
65666;BME280;52365;47.464;18.976;2023-03-03T01:11:58;99960.63;;;5.17;64.35
65666;BME280;52365;47.464;18.976;2023-03-03T01:12:35;99961.53;;;5.10;64.31
65666;BME280;52365;47.464;18.976;2023-03-03T01:13:11;99959.34;;;5.05;64.57
65666;BME280;52365;47.464;18.976;2023-03-03T01:13:48;99956.25;;;5.07;64.72
65666;BME280;52365;47.464;18.976;2023-03-03T01:14:25;99961.84;;;5.12;64.66
65666;BME280;52365;47.464;18.976;2023-03-03T01:15:02;99959.19;;;5.12;64.61
65666;BME280;52365;47.464;18.976;2023-03-03T01:15:39;99955.69;;;5.15;64.60
65666;BME280;52365;47.464;18.976;2023-03-03T01:16:15;99952.22;;;5.18;64.56
65666;BME280;52365;47.464;18.976;2023-03-03T01:16:52;99962.28;;;5.11;64.46
65666;BME280;52365;47.464;18.976;2023-03-03T01:17:28;99954.75;;;5.05;64.68
65666;BME280;52365;47.464;18.976;2023-03-03T01:18:05;99952.81;;;5.06;64.73
65666;BME280;52365;47.464;18.976;2023-03-03T01:18:41;99963.84;;;5.08;64.74
65666;BME280;52365;47.464;18.976;2023-03-03T01:19:17;99960.69;;;5.13;64.65
65666;BME280;52365;47.464;18.976;2023-03-03T01:19:53;99956.13;;;5.14;64.63
65666;BME280;52365;47.464;18.976;2023-03-03T01:20:30;99955.34;;;5.13;64.65
65666;BME280;52365;47.464;18.976;2023-03-03T01:21:07;99953.34;;;5.17;64.61
65666;BME280;52365;47.464;18.976;2023-03-03T01:21:43;99958.78;;;5.14;64.64
65666;BME280;52365;47.464;18.976;2023-03-03T01:22:19;99951.66;;;5.07;64.72
65666;BME280;52365;47.464;18.976;2023-03-03T01:22:55;99960.34;;;5.11;64.83
65666;BME280;52365;47.464;18.976;2023-03-03T01:23:32;99955.34;;;5.13;64.78
65666;BME280;52365;47.464;18.976;2023-03-03T01:24:08;99953.50;;;5.10;64.80
65666;BME280;52365;47.464;18.976;2023-03-03T01:24:44;99946.88;;;5.18;64.76
65666;BME280;52365;47.464;18.976;2023-03-03T01:25:20;99952.91;;;5.22;64.66
65666;BME280;52365;47.464;18.976;2023-03-03T01:25:56;99949.44;;;5.22;64.64
65666;BME280;52365;47.464;18.976;2023-03-03T01:26:32;99946.38;;;5.23;64.63
65666;BME280;52365;47.464;18.976;2023-03-03T01:27:08;99941.78;;;5.24;64.59
65666;BME280;52365;47.464;18.976;2023-03-03T01:27:45;99949.06;;;5.23;64.59
65666;BME280;52365;47.464;18.976;2023-03-03T01:28:21;99942.22;;;5.22;64.55
65666;BME280;52365;47.464;18.976;2023-03-03T01:28:57;99948.75;;;5.18;64.79
65666;BME280;52365;47.464;18.976;2023-03-03T01:29:33;99945.16;;;5.28;64.61
65666;BME280;52365;47.464;18.976;2023-03-03T01:30:09;99940.47;;;5.32;64.42
65666;BME280;52365;47.464;18.976;2023-03-03T01:30:45;99945.97;;;5.25;64.54
65666;BME280;52365;47.464;18.976;2023-03-03T01:31:21;99942.13;;;5.26;64.64
65666;BME280;52365;47.464;18.976;2023-03-03T01:31:57;99949.00;;;5.27;64.64
65666;BME280;52365;47.464;18.976;2023-03-03T01:32:34;99948.22;;;5.26;64.61
65666;BME280;52365;47.464;18.976;2023-03-03T01:33:10;99950.50;;;5.28;64.62
65666;BME280;52365;47.464;18.976;2023-03-03T01:33:46;99949.75;;;5.27;64.58
65666;BME280;52365;47.464;18.976;2023-03-03T01:34:22;99949.75;;;5.27;64.52
65666;BME280;52365;47.464;18.976;2023-03-03T01:34:59;99942.06;;;5.29;64.48
65666;BME280;52365;47.464;18.976;2023-03-03T01:35:35;99945.91;;;5.28;64.45
65666;BME280;52365;47.464;18.976;2023-03-03T01:36:11;99944.47;;;5.24;64.49
65666;BME280;52365;47.464;18.976;2023-03-03T01:36:47;99939.19;;;5.20;64.62
65666;BME280;52365;47.464;18.976;2023-03-03T01:37:23;99948.31;;;5.23;64.72
65666;BME280;52365;47.464;18.976;2023-03-03T01:37:59;99944.53;;;5.20;64.77
65666;BME280;52365;47.464;18.976;2023-03-03T01:38:36;99945.97;;;5.25;64.85
65666;BME280;52365;47.464;18.976;2023-03-03T01:39:12;99941.22;;;5.33;64.68
65666;BME280;52365;47.464;18.976;2023-03-03T01:39:50;99939.31;;;5.33;64.55
65666;BME280;52365;47.464;18.976;2023-03-03T01:40:29;99938.06;;;5.38;64.47
65666;BME280;52365;47.464;18.976;2023-03-03T01:41:05;99937.25;;;5.41;64.36
65666;BME280;52365;47.464;18.976;2023-03-03T01:41:41;99939.56;;;5.39;64.29
65666;BME280;52365;47.464;18.976;2023-03-03T01:42:17;99940.75;;;5.38;64.41
65666;BME280;52365;47.464;18.976;2023-03-03T01:42:54;99938.81;;;5.38;64.46
65666;BME280;52365;47.464;18.976;2023-03-03T01:43:32;99941.91;;;5.37;64.51
65666;BME280;52365;47.464;18.976;2023-03-03T01:44:13;99935.06;;;5.36;64.50
65666;BME280;52365;47.464;18.976;2023-03-03T01:45:18;99938.41;;;5.40;64.59
65666;BME280;52365;47.464;18.976;2023-03-03T01:47:28;99931.16;;;5.40;64.61
65666;BME280;52365;47.464;18.976;2023-03-03T01:48:15;99928.88;;;5.39;64.58
65666;BME280;52365;47.464;18.976;2023-03-03T01:48:57;99931.81;;;5.44;64.51
65666;BME280;52365;47.464;18.976;2023-03-03T01:49:46;99936.09;;;5.42;64.46
65666;BME280;52365;47.464;18.976;2023-03-03T01:50:53;99930.66;;;5.45;64.47
65666;BME280;52365;47.464;18.976;2023-03-03T01:51:47;99935.25;;;5.45;64.40
65666;BME280;52365;47.464;18.976;2023-03-03T01:52:28;99930.66;;;5.45;64.46
65666;BME280;52365;47.464;18.976;2023-03-03T01:53:11;99934.59;;;5.57;64.20
65666;BME280;52365;47.464;18.976;2023-03-03T01:53:51;99928.31;;;5.47;64.26
65666;BME280;52365;47.464;18.976;2023-03-03T01:54:34;99937.94;;;5.45;64.42
65666;BME280;52365;47.464;18.976;2023-03-03T01:55:22;99925.91;;;5.53;64.39
65666;BME280;52365;47.464;18.976;2023-03-03T01:56:02;99928.81;;;5.42;64.51
65666;BME280;52365;47.464;18.976;2023-03-03T01:56:41;99936.41;;;5.44;64.53
65666;BME280;52365;47.464;18.976;2023-03-03T01:57:23;99933.75;;;5.44;64.59
65666;BME280;52365;47.464;18.976;2023-03-03T01:58:17;99928.75;;;5.46;64.59
65666;BME280;52365;47.464;18.976;2023-03-03T01:59:04;99927.25;;;5.45;64.50
65666;BME280;52365;47.464;18.976;2023-03-03T01:59:46;99932.50;;;5.48;64.56
65666;BME280;52365;47.464;18.976;2023-03-03T02:00:23;99924.69;;;5.58;64.38
65666;BME280;52365;47.464;18.976;2023-03-03T02:01:03;99935.44;;;5.54;64.35
65666;BME280;52365;47.464;18.976;2023-03-03T02:01:40;99932.78;;;5.54;64.45
65666;BME280;52365;47.464;18.976;2023-03-03T02:02:17;99928.59;;;5.53;64.49
65666;BME280;52365;47.464;18.976;2023-03-03T02:02:54;99934.69;;;5.53;64.53
65666;BME280;52365;47.464;18.976;2023-03-03T02:03:30;99927.16;;;5.48;64.49
65666;BME280;52365;47.464;18.976;2023-03-03T02:04:07;99934.16;;;5.42;64.77
65666;BME280;52365;47.464;18.976;2023-03-03T02:04:43;99925.81;;;5.40;64.88
65666;BME280;52365;47.464;18.976;2023-03-03T02:05:20;99933.41;;;5.42;64.91
65666;BME280;52365;47.464;18.976;2023-03-03T02:06:00;99928.75;;;5.46;64.90
65666;BME280;52365;47.464;18.976;2023-03-03T02:06:46;99923.72;;;5.48;64.85
65666;BME280;52365;47.464;18.976;2023-03-03T02:07:27;99934.03;;;5.49;64.86
65666;BME280;52365;47.464;18.976;2023-03-03T02:08:06;99925.66;;;5.47;64.87
65666;BME280;52365;47.464;18.976;2023-03-03T02:08:51;99937.78;;;5.52;64.85
65666;BME280;52365;47.464;18.976;2023-03-03T02:09:36;99929.44;;;5.50;64.71
65666;BME280;52365;47.464;18.976;2023-03-03T02:10:17;99927.16;;;5.48;64.87
65666;BME280;52365;47.464;18.976;2023-03-03T02:10:54;99934.03;;;5.49;64.92
65666;BME280;52365;47.464;18.976;2023-03-03T02:11:35;99933.47;;;5.58;64.79
65666;BME280;52365;47.464;18.976;2023-03-03T02:12:15;99935.16;;;5.68;64.46
65666;BME280;52365;47.464;18.976;2023-03-03T02:12:56;99925.69;;;5.64;64.34
65666;BME280;52365;47.464;18.976;2023-03-03T02:13:33;99928.69;;;5.66;64.37
65666;BME280;52365;47.464;18.976;2023-03-03T02:14:11;99937.97;;;5.61;64.50
65666;BME280;52365;47.464;18.976;2023-03-03T02:14:47;99926.19;;;5.59;64.52
65666;BME280;52365;47.464;18.976;2023-03-03T02:15:32;99932.97;;;5.63;64.51
65666;BME280;52365;47.464;18.976;2023-03-03T02:16:10;99936.66;;;5.69;64.33
65666;BME280;52365;47.464;18.976;2023-03-03T02:16:46;99934.41;;;5.68;64.25
65666;BME280;52365;47.464;18.976;2023-03-03T02:17:23;99928.28;;;5.67;64.09
65666;BME280;52365;47.464;18.976;2023-03-03T02:18:02;99925.28;;;5.65;64.15
65666;BME280;52365;47.464;18.976;2023-03-03T02:18:39;99929.12;;;5.64;64.32
65666;BME280;52365;47.464;18.976;2023-03-03T02:19:23;99922.19;;;5.67;64.38
65666;BME280;52365;47.464;18.976;2023-03-03T02:20:02;99917.44;;;5.74;64.24
65666;BME280;52365;47.464;18.976;2023-03-03T02:21:21;99923.19;;;5.73;64.26
65666;BME280;52365;47.464;18.976;2023-03-03T02:21:59;99921.62;;;5.75;64.15
65666;BME280;52365;47.464;18.976;2023-03-03T02:22:44;99918.97;;;5.75;64.20
65666;BME280;52365;47.464;18.976;2023-03-03T02:24:26;99923.88;;;5.77;64.26
65666;BME280;52365;47.464;18.976;2023-03-03T02:25:07;99923.44;;;5.78;64.22
65666;BME280;52365;47.464;18.976;2023-03-03T02:26:27;99920.03;;;5.78;64.21
65666;BME280;52365;47.464;18.976;2023-03-03T02:27:04;99925.06;;;5.76;64.30
65666;BME280;52365;47.464;18.976;2023-03-03T02:27:40;99929.56;;;5.79;64.30
65666;BME280;52365;47.464;18.976;2023-03-03T02:28:17;99921.78;;;5.68;64.58
65666;BME280;52365;47.464;18.976;2023-03-03T02:28:53;99916.06;;;5.66;64.82
65666;BME280;52365;47.464;18.976;2023-03-03T02:29:29;99922.03;;;5.74;64.69
65666;BME280;52365;47.464;18.976;2023-03-03T02:30:13;99923.38;;;5.82;64.41
65666;BME280;52365;47.464;18.976;2023-03-03T02:30:53;99932.16;;;5.82;64.23
65666;BME280;52365;47.464;18.976;2023-03-03T02:31:30;99922.31;;;5.79;64.29
65666;BME280;52365;47.464;18.976;2023-03-03T02:32:06;99931.16;;;5.76;64.54
65666;BME280;52365;47.464;18.976;2023-03-03T02:32:42;99931.06;;;5.80;64.49
65666;BME280;52365;47.464;18.976;2023-03-03T02:33:18;99924.97;;;5.79;64.54
65666;BME280;52365;47.464;18.976;2023-03-03T02:33:55;99919.28;;;5.77;64.75
65666;BME280;52365;47.464;18.976;2023-03-03T02:34:46;99922.31;;;5.79;64.93
65666;BME280;52365;47.464;18.976;2023-03-03T02:35:37;99921.44;;;5.82;64.89
65666;BME280;52365;47.464;18.976;2023-03-03T02:36:17;99921.88;;;5.81;65.02
65666;BME280;52365;47.464;18.976;2023-03-03T02:36:53;99921.69;;;5.88;64.80
65666;BME280;52365;47.464;18.976;2023-03-03T02:37:29;99928.53;;;5.93;64.68
65666;BME280;52365;47.464;18.976;2023-03-03T02:38:28;99923.22;;;5.89;64.77
65666;BME280;52365;47.464;18.976;2023-03-03T02:39:17;99918.69;;;5.86;64.97
65666;BME280;52365;47.464;18.976;2023-03-03T02:39:54;99923.63;;;5.88;65.05
65666;BME280;52365;47.464;18.976;2023-03-03T02:40:35;99924.34;;;5.92;64.94
65666;BME280;52365;47.464;18.976;2023-03-03T02:42:05;99928.09;;;5.94;64.92
65666;BME280;52365;47.464;18.976;2023-03-03T02:42:44;99923.94;;;5.93;64.93
65666;BME280;52365;47.464;18.976;2023-03-03T02:43:22;99917.06;;;5.92;65.02
65666;BME280;52365;47.464;18.976;2023-03-03T02:44:09;99920.84;;;5.95;64.99
65666;BME280;52365;47.464;18.976;2023-03-03T02:44:45;99921.56;;;5.95;64.97
65666;BME280;52365;47.464;18.976;2023-03-03T02:45:22;99920.84;;;5.95;65.02
65666;BME280;52365;47.464;18.976;2023-03-03T02:45:58;99921.16;;;5.97;65.08
65666;BME280;52365;47.464;18.976;2023-03-03T02:46:37;99924.94;;;5.99;65.07
65666;BME280;52365;47.464;18.976;2023-03-03T02:47:13;99914.56;;;6.01;65.01
65666;BME280;52365;47.464;18.976;2023-03-03T02:47:50;99912.66;;;6.02;64.95
65666;BME280;52365;47.464;18.976;2023-03-03T02:48:26;99923.34;;;6.02;64.91
65666;BME280;52365;47.464;18.976;2023-03-03T02:49:04;99916.75;;;6.07;64.96
65666;BME280;52365;47.464;18.976;2023-03-03T02:49:40;99914.81;;;6.07;64.95
65666;BME280;52365;47.464;18.976;2023-03-03T02:50:17;99916.00;;;6.06;64.95
65666;BME280;52365;47.464;18.976;2023-03-03T02:50:53;99914.91;;;6.03;64.99
65666;BME280;52365;47.464;18.976;2023-03-03T02:51:29;99920.00;;;5.98;64.94
65666;BME280;52365;47.464;18.976;2023-03-03T02:52:08;99911.22;;;5.97;65.07
65666;BME280;52365;47.464;18.976;2023-03-03T02:52:47;99916.81;;;6.03;65.10
65666;BME280;52365;47.464;18.976;2023-03-03T02:53:23;99915.66;;;6.04;65.12
65666;BME280;52365;47.464;18.976;2023-03-03T02:54:00;99920.91;;;6.08;65.11
65666;BME280;52365;47.464;18.976;2023-03-03T02:54:36;99908.63;;;6.10;65.02
65666;BME280;52365;47.464;18.976;2023-03-03T02:55:13;99910.22;;;6.08;65.07
65666;BME280;52365;47.464;18.976;2023-03-03T02:55:49;99905.28;;;6.06;65.12
65666;BME280;52365;47.464;18.976;2023-03-03T02:56:25;99912.47;;;6.09;65.20
65666;BME280;52365;47.464;18.976;2023-03-03T02:57:02;99909.13;;;6.05;65.16
65666;BME280;52365;47.464;18.976;2023-03-03T02:57:38;99913.66;;;6.08;65.11
65666;BME280;52365;47.464;18.976;2023-03-03T02:58:14;99908.22;;;6.12;65.08
65666;BME280;52365;47.464;18.976;2023-03-03T02:58:51;99904.34;;;6.13;64.96
65666;BME280;52365;47.464;18.976;2023-03-03T02:59:27;99911.47;;;6.19;64.74
65666;BME280;52365;47.464;18.976;2023-03-03T03:00:04;99899.59;;;6.20;64.64
65666;BME280;52365;47.464;18.976;2023-03-03T03:00:40;99915.66;;;6.20;64.70
65666;BME280;52365;47.464;18.976;2023-03-03T03:01:17;99912.75;;;6.15;64.76
65666;BME280;52365;47.464;18.976;2023-03-03T03:01:53;99908.97;;;6.12;64.96
65666;BME280;52365;47.464;18.976;2023-03-03T03:02:29;99905.78;;;6.17;64.91
65666;BME280;52365;47.464;18.976;2023-03-03T03:03:05;99907.28;;;6.18;64.82
65666;BME280;52365;47.464;18.976;2023-03-03T03:03:41;99899.25;;;6.18;64.79
65666;BME280;52365;47.464;18.976;2023-03-03T03:04:21;99909.63;;;6.16;64.77
65666;BME280;52365;47.464;18.976;2023-03-03T03:04:57;99902.66;;;6.19;64.67
65666;BME280;52365;47.464;18.976;2023-03-03T03:05:33;99909.94;;;6.18;64.86
65666;BME280;52365;47.464;18.976;2023-03-03T03:06:09;99899.50;;;6.24;64.72
65666;BME280;52365;47.464;18.976;2023-03-03T03:06:45;99901.94;;;6.18;64.69
65666;BME280;52365;47.464;18.976;2023-03-03T03:07:22;99900.78;;;6.19;64.83
65666;BME280;52365;47.464;18.976;2023-03-03T03:07:58;99901.09;;;6.21;64.83
65666;BME280;52365;47.464;18.976;2023-03-03T03:08:34;99899.91;;;6.22;64.81
65666;BME280;52365;47.464;18.976;2023-03-03T03:09:11;99898.41;;;6.21;64.80
65666;BME280;52365;47.464;18.976;2023-03-03T03:09:47;99899.59;;;6.20;64.84
65666;BME280;52365;47.464;18.976;2023-03-03T03:10:24;99897.91;;;6.26;64.83
65666;BME280;52365;47.464;18.976;2023-03-03T03:11:00;99904.69;;;6.31;64.70
65666;BME280;52365;47.464;18.976;2023-03-03T03:11:37;99899.31;;;6.31;64.66
65666;BME280;52365;47.464;18.976;2023-03-03T03:12:13;99904.28;;;6.33;64.67
65666;BME280;52365;47.464;18.976;2023-03-03T03:12:51;99903.59;;;6.28;64.69
65666;BME280;52365;47.464;18.976;2023-03-03T03:13:27;99903.19;;;6.30;64.82
65666;BME280;52365;47.464;18.976;2023-03-03T03:14:04;99897.66;;;6.37;64.78
65666;BME280;52365;47.464;18.976;2023-03-03T03:14:41;99902.81;;;6.44;64.50
65666;BME280;52365;47.464;18.976;2023-03-03T03:15:17;99893.72;;;6.42;64.46
65666;BME280;52365;47.464;18.976;2023-03-03T03:15:53;99896.72;;;6.44;64.44
65666;BME280;52365;47.464;18.976;2023-03-03T03:16:29;99899.81;;;6.42;64.45
65666;BME280;52365;47.464;18.976;2023-03-03T03:17:06;99903.91;;;6.47;64.35
65666;BME280;52365;47.464;18.976;2023-03-03T03:17:42;99892.53;;;6.43;64.37
65666;BME280;52365;47.464;18.976;2023-03-03T03:18:19;99891.44;;;6.40;64.60
65666;BME280;52365;47.464;18.976;2023-03-03T03:18:55;99891.44;;;6.40;64.75
65666;BME280;52365;47.464;18.976;2023-03-03T03:19:31;99892.53;;;6.43;64.72
65666;BME280;52365;47.464;18.976;2023-03-03T03:20:08;99888.69;;;6.44;64.66
65666;BME280;52365;47.464;18.976;2023-03-03T03:20:44;99883.66;;;6.46;64.59
65666;BME280;52365;47.464;18.976;2023-03-03T03:21:20;99885.50;;;6.49;64.55
65666;BME280;52365;47.464;18.976;2023-03-03T03:21:56;99893.53;;;6.49;64.56
65666;BME280;52365;47.464;18.976;2023-03-03T03:22:33;99894.56;;;6.39;64.65
65666;BME280;52365;47.464;18.976;2023-03-03T03:23:11;99886.53;;;6.39;65.07
65666;BME280;52365;47.464;18.976;2023-03-03T03:23:47;99892.69;;;6.52;64.78
65666;BME280;52365;47.464;18.976;2023-03-03T03:24:23;99888.75;;;6.56;64.59
65666;BME280;52365;47.464;18.976;2023-03-03T03:24:59;99878.87;;;6.53;64.58
65666;BME280;52365;47.464;18.976;2023-03-03T03:25:35;99892.84;;;6.45;64.80
65666;BME280;52365;47.464;18.976;2023-03-03T03:26:17;99882.06;;;6.48;64.94
65666;BME280;52365;47.464;18.976;2023-03-03T03:26:55;99893.66;;;6.58;64.79
65666;BME280;52365;47.464;18.976;2023-03-03T03:27:32;99882.53;;;6.60;64.63
65666;BME280;52365;47.464;18.976;2023-03-03T03:28:08;99892.81;;;6.61;64.71
65666;BME280;52365;47.464;18.976;2023-03-03T03:28:44;99886.16;;;6.53;64.93
65666;BME280;52365;47.464;18.976;2023-03-03T03:29:20;99879.53;;;6.57;64.94
65666;BME280;52365;47.464;18.976;2023-03-03T03:29:56;99880.19;;;6.62;64.83
65666;BME280;52365;47.464;18.976;2023-03-03T03:30:32;99876.75;;;6.61;64.85
65666;BME280;52365;47.464;18.976;2023-03-03T03:31:09;99879.13;;;6.59;64.98
65666;BME280;52365;47.464;18.976;2023-03-03T03:31:45;99889.91;;;6.55;65.09
65666;BME280;52365;47.464;18.976;2023-03-03T03:32:21;99886.50;;;6.55;65.19
65666;BME280;52365;47.464;18.976;2023-03-03T03:32:57;99883.38;;;6.56;65.24
65666;BME280;52365;47.464;18.976;2023-03-03T03:33:33;99880.28;;;6.58;65.22
65666;BME280;52365;47.464;18.976;2023-03-03T03:34:10;99883.28;;;6.60;65.18
65666;BME280;52365;47.464;18.976;2023-03-03T03:34:46;99886.63;;;6.64;65.12
65666;BME280;52365;47.464;18.976;2023-03-03T03:35:22;99877.00;;;6.67;64.94
65666;BME280;52365;47.464;18.976;2023-03-03T03:35:58;99880.09;;;6.65;64.96
65666;BME280;52365;47.464;18.976;2023-03-03T03:36:35;99875.19;;;6.64;64.99